Norwalk, CT

2:15 PM EST on February 25, 2017 (GMT -0500)
Cranbury | | Change Station

Elev 86 ft 41.14 °N, 73.40 °W | Updated 8 seconds ago

Overcast
Overcast
62.8 °F
Feels Like 62.8 °F
N
1.0
Wind Variable Wind from NNW
Gusts 3.0 mph

Today
High -- | Low -- °F
--% Chance of Precip.
Yesterday
High -- | Low -- °F
Precip. -- in
Pressure 29.62 in
Visibility 10.0 miles
Clouds Mostly Cloudy 2700 ft
Mostly Cloudy 3200 ft
Overcast 3900 ft
Dew Point 57 °F
Humidity 82%
Rainfall 0.00 in
Snow Depth Not available.
6:33 AM 5:40 PM
Waning Crescent, 1% visible
METAR KBDR 251852Z 08008KT 10SM BKN027 BKN032 OVC039 13/10 A2962 RMK AO2 SLP029 T01330100
Pressure 29.62 in
Visibility 10.0 miles
Clouds Mostly Cloudy 2700 ft
Mostly Cloudy 3200 ft
Overcast 3900 ft
Dew Point 57 °F
Humidity 82%
Rainfall 0.00 in
Snow Depth Not available.
6:33 AM 5:40 PM
Waning Crescent, 1% visible
METAR KBDR 251852Z 08008KT 10SM BKN027 BKN032 OVC039 13/10 A2962 RMK AO2 SLP029 T01330100

Get Your Daily Forecast Email!

Thanks for signing up!

Be on the lookout for a verification email in your inbox.

You'll start receiving the daily forecast at 8 AM.

×

10-Day Weather Forecast

Almanac

Astronomy

Feb. 25, 2017 Rise Set
Actual Time
Civil Twilight
Nautical Twilight
Astronomical Twilight
Moon
Length of Visible Light
Length of Day
Tomorrow will be .
, % of the Moon is Illuminated

Today's Extremes

State Highs State Lows

Community

WunderPhotos

Upload Photos

1,962,540 photos uploaded!

WunderBlog® & News

Nearby

Air Quality

  Air Quality AQ Index Pollutant
Not available.

Snow Depth

Station Depth Elevation

Earthquake Activity

City Distance Mag. Time & Date
Minimum magnitude displayed is 2.5.

Coastal Water Temperatures

Place Temperature

Stations

Nearby Weather Stations

Station Location Temp. Windchill Dew Point Humidity Wind Precip. Elev Updated Type
                   

Watches & Warnings

There are currently no watches in effect.